Airfield :
LOGIN :

Register | Disclaimer

   EN    FR    IT 

 










Legend :    VFR   Marginal VFR   IFR   Intensive IFR   Very Intensive IFR
Visi :
Ceiling :
>= 8 km
>= 3000ft
5 to 8 km
1000 to 3000 ft
1500m to 5 km
500 to 1000 ft
800 to 1500m
200 to 500 ft
< 800m
< 200 ft
Symbols :   Thunderstorms  Fog  Heavy snow  Heavy precipitations  Wind > 20 kt
SIGMETs :     Misc.  Thunderstorms  Icing  Turbulence  Mountain Waves  Volcanic Ashes







- Airport Elevation : 364 ft
- IATA code : FRA


EDDF - Frankfurt Int.

CURRENT METAR :
  • 241720Z 32007KT 290V360 9999 VCSH FEW038 SCT060 BKN090 20/12 Q1022 NOSIG

EXPIRED METARs :
  • 241650Z 29007KT 270V330 9999 VCSH FEW040 BKN090 BKN250 20/12 Q1021 NOSIG
  • 241620Z 30008KT 270V330 9999 VCSH FEW040 BKN090 BKN250 21/12 Q1022 NOSIG
  • 241550Z 28006KT 230V330 9999 FEW040 SCT050 BKN090 21/12 Q1022 NOSIG
  • 241520Z 25004KT 200V270 9999 FEW040 SCT047 BKN070 20/12 Q1022 NOSIG
  • 241450Z 23005KT 200V270 9999 FEW040 BKN047 BKN100 20/12 Q1022 NOSIG

TAF TAF EDDF
Valid from the 24 at 18:00 until the 26 at 00:00 UTC


241700Z 2418/2524 31005KT 9999 SCT040
BECMG 2418/2420 03002KT
BECMG 2506/2509 02008KT
BECMG 2518/2520 04003KT
No reported NOTAMs for that airfield.



MET'MAP, your aeronautical weather chart ! - Copyright ORBIFLY December 2007 - Disclaimer

ORBIFLY MET'MAP TEAM :

Programming & Development : Alexandra Zaïnal
Concept & Development : Baudouin d'Aumeries
Co-Development & Prog : Marc-Olivier Méhu
Technical & hardware support : Manuel Goepfert

Contact : metmap@orbifly.com




SOURCES & CREDITS :

   NOAA